Time;durP1;ratioP1;P1;durP2;ratioP2;P2;SDS_P1;SDS_P2;PMS_P1;PMS_P2;Temp;Humidity;BMP_temperature;BMP_pressure;BME280_temperature;BME280_humidity;BME280_pressure;Samples;Min_cycle;Max_cycle;Signal;HPM_P1;HPM_P2
2023/12/30 00:00:49;;;;;;;1.15;1.10;;;;;;;;;;5045407;28;20106;-89
2023/12/30 00:03:17;;;;;;;2.15;1.45;;;;;;;;;;5044836;28;20053;-89
2023/12/30 00:05:44;;;;;;;1.40;1.40;;;;;;;;;;5058346;28;20053;-89
2023/12/30 00:08:11;;;;;;;1.65;1.10;;;;;;;;;;5058261;28;20049;-88
2023/12/30 00:10:38;;;;;;;2.42;1.15;;;;;;;;;;5061565;28;20080;-88
2023/12/30 00:13:06;;;;;;;2.88;1.10;;;;;;;;;;5044880;28;20509;-88
2023/12/30 00:15:33;;;;;;;2.95;1.25;;;;;;;;;;5042142;28;20087;-88
2023/12/30 00:18:00;;;;;;;1.73;1.08;;;;;;;;;;5041350;28;20494;-89
2023/12/30 00:20:28;;;;;;;2.40;1.15;;;;;;;;;;5042904;28;20052;-89
2023/12/30 00:22:55;;;;;;;1.98;1.10;;;;;;;;;;5044893;28;20048;-88
2023/12/30 00:25:22;;;;;;;1.50;0.75;;;;;;;;;;5043545;28;20073;-89
2023/12/30 00:27:51;;;;;;;2.15;0.63;;;;;;;;;;5057119;28;20056;-88
2023/12/30 00:30:19;;;;;;;4.05;0.50;;;;;;;;;;5058139;28;20079;-88
2023/12/30 00:32:46;;;;;;;0.50;0.50;;;;;;;;;;5044507;28;20059;-88
2023/12/30 00:35:13;;;;;;;1.27;0.40;;;;;;;;;;5044639;28;20481;-88
2023/12/30 00:37:41;;;;;;;0.85;0.60;;;;;;;;;;5033247;28;20395;-88
2023/12/30 00:40:08;;;;;;;0.50;0.50;;;;;;;;;;5041040;28;20057;-88
2023/12/30 00:42:35;;;;;;;0.50;0.50;;;;;;;;;;5043701;28;20489;-88
2023/12/30 00:45:03;;;;;;;0.70;0.70;;;;;;;;;;5052178;28;20053;-88
2023/12/30 00:47:30;;;;;;;1.65;0.95;;;;;;;;;;5042220;28;20053;-88
2023/12/30 00:49:57;;;;;;;1.27;0.80;;;;;;;;;;5042028;28;20128;-88
2023/12/30 00:52:25;;;;;;;1.15;0.90;;;;;;;;;;5058703;28;20055;-88
2023/12/30 00:54:52;;;;;;;1.40;0.77;;;;;;;;;;5043987;28;20546;-88
2023/12/30 00:57:19;;;;;;;2.20;0.73;;;;;;;;;;5043292;28;20122;-88
2023/12/30 00:59:47;;;;;;;2.75;0.70;;;;;;;;;;5057157;28;20049;-88
2023/12/30 01:02:14;;;;;;;0.77;0.55;;;;;;;;;;5057121;28;20073;-88
2023/12/30 01:04:41;;;;;;;1.25;0.57;;;;;;;;;;5060547;28;20059;-88
2023/12/30 01:07:09;;;;;;;1.67;0.70;;;;;;;;;;5043767;28;20053;-88
2023/12/30 01:09:36;;;;;;;0.80;0.80;;;;;;;;;;5040972;28;20140;-88
2023/12/30 01:12:03;;;;;;;5.10;0.77;;;;;;;;;;5040377;28;20081;-87
2023/12/30 01:14:30;;;;;;;2.35;0.60;;;;;;;;;;5059056;28;20049;-88
2023/12/30 01:16:58;;;;;;;2.25;1.02;;;;;;;;;;5043822;28;20437;-88
2023/12/30 01:19:25;;;;;;;1.10;0.75;;;;;;;;;;5042285;28;20057;-88
2023/12/30 01:21:52;;;;;;;2.38;0.55;;;;;;;;;;5057148;28;20076;-87
2023/12/30 01:24:20;;;;;;;1.67;0.60;;;;;;;;;;5057029;28;20144;-88
2023/12/30 01:26:48;;;;;;;1.80;0.60;;;;;;;;;;5043634;28;20057;-92
2023/12/30 01:29:15;;;;;;;0.68;0.50;;;;;;;;;;5043770;28;20094;-88
2023/12/30 01:31:42;;;;;;;2.25;0.70;;;;;;;;;;5056862;28;20049;-88
2023/12/30 01:34:10;;;;;;;1.08;0.60;;;;;;;;;;5040079;28;20103;-88
2023/12/30 01:36:37;;;;;;;2.85;0.93;;;;;;;;;;5042978;28;20387;-88
2023/12/30 01:39:05;;;;;;;1.02;0.77;;;;;;;;;;5044901;28;20459;-88
2023/12/30 01:41:32;;;;;;;0.88;0.85;;;;;;;;;;5039530;28;20053;-88
2023/12/30 01:43:59;;;;;;;2.38;0.60;;;;;;;;;;5047617;28;20501;-89
2023/12/30 01:46:27;;;;;;;0.52;0.52;;;;;;;;;;5045924;28;20053;-88
2023/12/30 01:48:55;;;;;;;2.30;0.52;;;;;;;;;;5060990;28;20045;-88
2023/12/30 01:51:22;;;;;;;2.55;0.70;;;;;;;;;;5061346;28;20064;-88
2023/12/30 01:53:53;;;;;;;1.95;0.68;;;;;;;;;;5047627;28;20048;-89
2023/12/30 01:56:21;;;;;;;0.88;0.60;;;;;;;;;;5046601;28;20056;-89
2023/12/30 01:58:50;;;;;;;1.65;0.80;;;;;;;;;;5052410;28;20049;-88
2023/12/30 02:01:18;;;;;;;2.03;0.45;;;;;;;;;;5024504;28;20479;-90
2023/12/30 02:03:45;;;;;;;1.30;0.60;;;;;;;;;;5028248;28;20053;-89
2023/12/30 02:06:13;;;;;;;0.40;0.40;;;;;;;;;;5059916;28;20474;-88
2023/12/30 02:08:40;;;;;;;0.50;0.50;;;;;;;;;;5052174;28;20053;-89
2023/12/30 02:11:07;;;;;;;2.35;0.50;;;;;;;;;;5060272;28;20045;-89
2023/12/30 02:13:35;;;;;;;0.68;0.50;;;;;;;;;;5063050;28;20102;-88
2023/12/30 02:16:02;;;;;;;0.82;0.43;;;;;;;;;;5047038;28;20445;-89
2023/12/30 02:18:29;;;;;;;0.60;0.50;;;;;;;;;;5044294;28;20060;-88
2023/12/30 02:20:56;;;;;;;0.73;0.50;;;;;;;;;;5044692;28;20431;-89
2023/12/30 02:23:24;;;;;;;1.83;0.70;;;;;;;;;;5060772;28;20107;-89
2023/12/30 02:25:51;;;;;;;1.30;0.40;;;;;;;;;;5037233;28;20487;-88
2023/12/30 02:28:18;;;;;;;0.32;0.30;;;;;;;;;;5040403;28;20045;-89
2023/12/30 02:30:45;;;;;;;1.13;0.20;;;;;;;;;;5059920;28;20063;-88
2023/12/30 02:33:13;;;;;;;1.25;0.52;;;;;;;;;;5059739;28;20469;-90
2023/12/30 02:35:43;;;;;;;0.73;0.40;;;;;;;;;;5051662;28;20107;-88
2023/12/30 02:38:11;;;;;;;2.95;0.60;;;;;;;;;;5059438;28;20045;-88
2023/12/30 02:40:38;;;;;;;1.90;0.40;;;;;;;;;;5043575;28;20408;-88
2023/12/30 02:43:05;;;;;;;1.75;0.50;;;;;;;;;;5059445;28;20073;-89
2023/12/30 02:45:32;;;;;;;1.02;0.45;;;;;;;;;;5041584;28;20779;-88
2023/12/30 02:48:00;;;;;;;1.23;0.82;;;;;;;;;;5021560;28;20501;-89
2023/12/30 02:50:27;;;;;;;1.13;0.70;;;;;;;;;;5060251;28;20053;-87
2023/12/30 02:52:54;;;;;;;0.30;0.30;;;;;;;;;;5040836;28;20460;-87
2023/12/30 02:55:21;;;;;;;3.10;0.50;;;;;;;;;;5043662;28;20045;-88
2023/12/30 02:57:49;;;;;;;1.77;0.40;;;;;;;;;;5046222;28;20049;-88
2023/12/30 03:00:17;;;;;;;1.42;0.30;;;;;;;;;;5045904;28;20056;-89
2023/12/30 03:02:46;;;;;;;1.95;0.55;;;;;;;;;;5059260;28;20437;-88
2023/12/30 03:05:13;;;;;;;1.92;0.70;;;;;;;;;;5042337;28;20152;-86
2023/12/30 03:07:41;;;;;;;2.90;0.60;;;;;;;;;;5034665;28;20441;-88
2023/12/30 03:10:08;;;;;;;1.70;0.40;;;;;;;;;;5042750;28;20053;-87
2023/12/30 03:12:36;;;;;;;2.80;0.38;;;;;;;;;;5045838;28;20406;-88
2023/12/30 03:15:03;;;;;;;2.33;0.75;;;;;;;;;;5053950;28;20118;-88
2023/12/30 03:17:30;;;;;;;1.75;0.43;;;;;;;;;;5043689;28;20064;-87
2023/12/30 03:19:58;;;;;;;2.35;0.70;;;;;;;;;;5016479;28;20136;-88
2023/12/30 03:22:26;;;;;;;3.70;0.50;;;;;;;;;;5005049;28;20054;-87
2023/12/30 03:24:53;;;;;;;3.10;0.60;;;;;;;;;;4999324;28;20042;-87
2023/12/30 03:27:20;;;;;;;3.53;0.55;;;;;;;;;;4990049;28;20174;-89
2023/12/30 03:29:48;;;;;;;1.40;0.50;;;;;;;;;;5006301;28;20042;-88
2023/12/30 03:32:15;;;;;;;1.38;0.65;;;;;;;;;;5006030;28;20045;-88
2023/12/30 03:34:42;;;;;;;1.42;0.55;;;;;;;;;;4999356;28;20099;-88
2023/12/30 03:37:10;;;;;;;3.67;0.80;;;;;;;;;;4995425;28;20110;-89
2023/12/30 03:39:37;;;;;;;1.80;0.47;;;;;;;;;;5005170;28;20046;-88
2023/12/30 03:42:04;;;;;;;2.40;0.85;;;;;;;;;;5005733;28;20123;-88
2023/12/30 03:44:32;;;;;;;0.85;0.85;;;;;;;;;;5003592;28;20116;-88
2023/12/30 03:46:59;;;;;;;1.45;0.50;;;;;;;;;;5002316;28;20078;-86
2023/12/30 03:49:27;;;;;;;1.38;0.60;;;;;;;;;;5004102;28;20046;-88
2023/12/30 03:51:54;;;;;;;2.45;0.70;;;;;;;;;;4997219;28;20062;-88
2023/12/30 03:54:21;;;;;;;3.92;0.90;;;;;;;;;;4997777;28;20161;-88
2023/12/30 03:56:49;;;;;;;3.00;0.85;;;;;;;;;;5005771;28;20096;-88
2023/12/30 03:59:16;;;;;;;3.95;0.80;;;;;;;;;;5005300;28;20108;-88
2023/12/30 04:01:44;;;;;;;2.40;0.52;;;;;;;;;;4998967;28;20074;-88
2023/12/30 04:04:11;;;;;;;2.00;0.50;;;;;;;;;;4994920;28;20051;-87
2023/12/30 04:06:38;;;;;;;2.15;0.55;;;;;;;;;;5004814;28;20046;-88
2023/12/30 04:09:05;;;;;;;3.63;0.85;;;;;;;;;;5005341;28;20073;-87
2023/12/30 04:11:33;;;;;;;2.45;0.60;;;;;;;;;;5002583;28;20454;-88
2023/12/30 04:14:00;;;;;;;4.82;0.70;;;;;;;;;;5001875;28;20137;-88
2023/12/30 04:16:27;;;;;;;3.85;0.60;;;;;;;;;;5003792;28;20061;-88
2023/12/30 04:18:55;;;;;;;2.97;0.80;;;;;;;;;;5022578;28;20057;-89
2023/12/30 04:21:24;;;;;;;4.63;1.20;;;;;;;;;;5042096;28;20053;-88
2023/12/30 04:23:51;;;;;;;2.60;1.10;;;;;;;;;;5044613;28;20052;-88
2023/12/30 04:26:18;;;;;;;6.07;0.90;;;;;;;;;;5036621;28;20316;-89
2023/12/30 04:28:47;;;;;;;1.27;0.80;;;;;;;;;;5051263;28;20076;-89
2023/12/30 04:31:14;;;;;;;3.88;1.05;;;;;;;;;;5047649;28;20055;-88
2023/12/30 04:33:41;;;;;;;2.55;0.93;;;;;;;;;;5049498;28;20049;-88
2023/12/30 04:36:09;;;;;;;2.50;1.02;;;;;;;;;;5057353;28;20049;-88
2023/12/30 04:38:36;;;;;;;5.13;1.75;;;;;;;;;;5057825;28;20053;-88
2023/12/30 04:41:03;;;;;;;8.05;3.50;;;;;;;;;;5041091;28;20049;-88
2023/12/30 04:43:30;;;;;;;7.32;2.10;;;;;;;;;;5040786;28;20053;-88
2023/12/30 04:45:58;;;;;;;4.25;1.90;;;;;;;;;;5057372;28;20091;-88
2023/12/30 04:48:25;;;;;;;6.18;1.90;;;;;;;;;;5041667;28;20049;-88
2023/12/30 04:50:53;;;;;;;3.22;1.23;;;;;;;;;;5044407;28;20045;-88
2023/12/30 04:53:20;;;;;;;3.95;1.17;;;;;;;;;;5043148;28;20489;-88
2023/12/30 04:55:47;;;;;;;11.63;6.35;;;;;;;;;;5057243;28;20494;-87
2023/12/30 04:58:16;;;;;;;6.43;1.90;;;;;;;;;;5057270;28;20049;-88
2023/12/30 05:00:43;;;;;;;5.25;1.98;;;;;;;;;;5032859;28;20049;-88
2023/12/30 05:03:10;;;;;;;6.75;1.60;;;;;;;;;;5056566;28;20482;-88
2023/12/30 05:05:38;;;;;;;17.20;1.40;;;;;;;;;;5060109;28;20053;-88
2023/12/30 05:08:05;;;;;;;3.95;0.90;;;;;;;;;;5036832;28;20054;-87
2023/12/30 05:10:33;;;;;;;4.30;1.30;;;;;;;;;;5040573;28;20053;-87
2023/12/30 05:13:01;;;;;;;5.40;1.45;;;;;;;;;;5056517;28;20504;-88
2023/12/30 05:15:29;;;;;;;5.72;1.15;;;;;;;;;;5054887;28;20049;-88
2023/12/30 05:17:56;;;;;;;5.85;1.10;;;;;;;;;;5017696;28;20084;-88
2023/12/30 05:20:24;;;;;;;4.57;0.98;;;;;;;;;;5057967;28;20049;-88
2023/12/30 05:22:51;;;;;;;2.83;0.90;;;;;;;;;;5044172;28;20060;-87
2023/12/30 05:25:18;;;;;;;1.98;1.05;;;;;;;;;;5043423;28;20056;-87
2023/12/30 05:27:46;;;;;;;2.65;1.00;;;;;;;;;;5056991;28;20060;-88
2023/12/30 05:30:13;;;;;;;9.00;1.73;;;;;;;;;;5056845;28;20069;-87
2023/12/30 05:32:40;;;;;;;3.90;1.13;;;;;;;;;;5057053;28;20417;-87
2023/12/30 05:35:07;;;;;;;4.75;0.93;;;;;;;;;;5024890;28;20050;-87
2023/12/30 05:37:35;;;;;;;4.10;1.30;;;;;;;;;;5043137;28;20524;-88
2023/12/30 05:40:06;;;;;;;7.40;1.85;;;;;;;;;;5043762;28;20044;-87
2023/12/30 05:42:33;;;;;;;3.25;1.10;;;;;;;;;;5041740;28;20048;-88
2023/12/30 05:45:00;;;;;;;5.47;1.30;;;;;;;;;;5063954;28;20536;-88
2023/12/30 05:47:28;;;;;;;3.05;1.00;;;;;;;;;;5058425;28;20050;-88
2023/12/30 05:49:55;;;;;;;3.40;1.40;;;;;;;;;;5043823;28;20053;-88
2023/12/30 05:52:22;;;;;;;6.10;1.45;;;;;;;;;;5026445;28;20466;-89
2023/12/30 05:54:50;;;;;;;2.78;1.10;;;;;;;;;;5056498;28;20057;-88
2023/12/30 05:57:17;;;;;;;9.15;3.13;;;;;;;;;;5040612;28;20558;-89
2023/12/30 05:59:45;;;;;;;6.10;1.00;;;;;;;;;;5039623;28;20056;-88
2023/12/30 06:02:12;;;;;;;5.35;1.42;;;;;;;;;;5040142;28;20041;-88
2023/12/30 06:04:43;;;;;;;4.45;0.90;;;;;;;;;;5043329;28;20127;-89
2023/12/30 06:07:10;;;;;;;5.15;1.17;;;;;;;;;;5043285;28;20056;-88
2023/12/30 06:09:38;;;;;;;5.22;0.77;;;;;;;;;;5040333;28;20049;-89
2023/12/30 06:12:05;;;;;;;5.22;1.00;;;;;;;;;;5056379;28;20502;-89
2023/12/30 06:14:33;;;;;;;3.95;1.00;;;;;;;;;;5053985;28;20056;-89
2023/12/30 06:17:00;;;;;;;3.95;1.05;;;;;;;;;;5032682;28;20095;-89
2023/12/30 06:19:28;;;;;;;5.90;0.80;;;;;;;;;;5040955;28;20061;-88
2023/12/30 06:21:56;;;;;;;2.28;0.80;;;;;;;;;;5056410;28;20049;-89
2023/12/30 06:24:26;;;;;;;5.43;1.67;;;;;;;;;;5057296;28;20061;-90
2023/12/30 06:26:54;;;;;;;5.40;1.40;;;;;;;;;;5045956;28;20045;-89
2023/12/30 06:29:21;;;;;;;3.17;1.00;;;;;;;;;;5046146;28;20052;-89
2023/12/30 06:31:49;;;;;;;4.57;1.00;;;;;;;;;;5060103;28;20049;-88
2023/12/30 06:34:17;;;;;;;4.00;0.90;;;;;;;;;;5059808;28;20461;-89
2023/12/30 06:36:45;;;;;;;3.65;1.13;;;;;;;;;;5046603;28;20119;-89
2023/12/30 06:39:13;;;;;;;6.68;1.23;;;;;;;;;;5046652;28;20135;-90
2023/12/30 06:41:41;;;;;;;8.80;1.20;;;;;;;;;;5035207;28;20474;-88
2023/12/30 06:44:08;;;;;;;5.82;1.20;;;;;;;;;;5057641;28;20508;-88
2023/12/30 06:46:35;;;;;;;5.18;1.10;;;;;;;;;;5062394;28;20060;-89
2023/12/30 06:49:03;;;;;;;4.13;1.02;;;;;;;;;;5046647;28;20052;-88
2023/12/30 06:51:31;;;;;;;2.33;0.85;;;;;;;;;;5044364;28;20052;-88
2023/12/30 06:53:58;;;;;;;4.13;0.90;;;;;;;;;;5059133;28;20123;-89
2023/12/30 06:56:25;;;;;;;3.20;0.88;;;;;;;;;;5060677;28;20054;-88
2023/12/30 06:58:52;;;;;;;2.22;0.80;;;;;;;;;;5054349;28;20462;-89
2023/12/30 07:01:20;;;;;;;2.75;0.73;;;;;;;;;;5047788;28;20128;-90
2023/12/30 07:03:48;;;;;;;3.38;0.98;;;;;;;;;;5055473;28;20052;-89
2023/12/30 07:06:15;;;;;;;5.97;1.00;;;;;;;;;;5046413;28;20053;-88
2023/12/30 07:08:42;;;;;;;2.00;0.73;;;;;;;;;;5059003;28;20060;-88
2023/12/30 07:11:10;;;;;;;5.82;1.05;;;;;;;;;;5058811;28;20520;-88
2023/12/30 07:13:37;;;;;;;2.80;1.00;;;;;;;;;;5062158;28;20072;-88
2023/12/30 07:16:05;;;;;;;6.65;0.90;;;;;;;;;;5046043;28;20045;-89
2023/12/30 07:18:32;;;;;;;2.05;1.00;;;;;;;;;;5028861;28;20053;-89
2023/12/30 07:20:59;;;;;;;4.47;1.65;;;;;;;;;;5045930;28;20080;-88
2023/12/30 07:23:27;;;;;;;5.85;1.75;;;;;;;;;;5043637;28;20045;-88
2023/12/30 07:25:54;;;;;;;3.70;0.88;;;;;;;;;;5042637;28;20049;-89
2023/12/30 07:28:21;;;;;;;3.22;0.80;;;;;;;;;;5043075;28;20049;-89
2023/12/30 07:30:48;;;;;;;1.58;0.98;;;;;;;;;;5033364;28;20049;-89
2023/12/30 07:33:16;;;;;;;3.03;0.77;;;;;;;;;;5058884;28;20049;-89
2023/12/30 07:35:43;;;;;;;3.70;1.23;;;;;;;;;;5045908;28;20450;-89
2023/12/30 07:38:10;;;;;;;3.83;0.88;;;;;;;;;;5045470;28;20045;-90
2023/12/30 07:40:37;;;;;;;3.58;1.10;;;;;;;;;;5042650;28;20099;-88
2023/12/30 07:43:05;;;;;;;5.05;0.88;;;;;;;;;;5058649;28;20510;-89
2023/12/30 07:45:32;;;;;;;2.70;1.08;;;;;;;;;;5044275;28;20046;-88
2023/12/30 07:48:00;;;;;;;1.73;0.70;;;;;;;;;;5045500;28;20049;-88
2023/12/30 07:50:27;;;;;;;2.63;0.70;;;;;;;;;;5036968;28;20091;-89
2023/12/30 07:52:54;;;;;;;4.20;0.98;;;;;;;;;;5045395;28;20499;-89
2023/12/30 07:55:21;;;;;;;2.80;0.80;;;;;;;;;;5028449;28;20050;-89
2023/12/30 07:57:49;;;;;;;3.15;0.70;;;;;;;;;;5058747;28;20133;-89
2023/12/30 08:00:16;;;;;;;3.58;0.80;;;;;;;;;;5058532;28;20398;-89
2023/12/30 08:02:44;;;;;;;4.15;0.85;;;;;;;;;;5045120;28;20490;-88
2023/12/30 08:05:11;;;;;;;3.00;0.95;;;;;;;;;;5045110;28;20100;-89
2023/12/30 08:07:39;;;;;;;3.22;0.90;;;;;;;;;;5041898;28;20340;-89
2023/12/30 08:10:06;;;;;;;4.60;1.10;;;;;;;;;;5058753;28;20045;-89
2023/12/30 08:12:35;;;;;;;4.13;2.13;;;;;;;;;;5063144;28;20049;-88
2023/12/30 08:15:04;;;;;;;4.03;1.90;;;;;;;;;;5054342;28;20045;-89
2023/12/30 08:17:31;;;;;;;6.47;1.50;;;;;;;;;;5040459;28;20059;-89
2023/12/30 08:19:59;;;;;;;4.28;1.85;;;;;;;;;;5025711;28;20091;-89
2023/12/30 08:22:26;;;;;;;2.22;1.60;;;;;;;;;;5043562;28;20508;-89
2023/12/30 08:24:54;;;;;;;7.07;2.50;;;;;;;;;;5058244;28;20057;-89
2023/12/30 08:27:21;;;;;;;2.78;1.52;;;;;;;;;;5058629;28;20136;-89
2023/12/30 08:29:48;;;;;;;5.43;1.50;;;;;;;;;;5044838;28;20167;-89
2023/12/30 08:32:16;;;;;;;4.35;1.58;;;;;;;;;;5044463;28;20402;-89
2023/12/30 08:34:43;;;;;;;5.70;1.65;;;;;;;;;;5057689;28;20052;-90
2023/12/30 08:37:10;;;;;;;3.03;1.13;;;;;;;;;;5057639;28;20100;-89
2023/12/30 08:39:38;;;;;;;4.55;1.20;;;;;;;;;;5057783;28;20049;-89
2023/12/30 08:42:07;;;;;;;2.97;0.88;;;;;;;;;;5039877;28;20049;-88
2023/12/30 08:44:37;;;;;;;3.00;0.90;;;;;;;;;;5041391;28;20053;-89
2023/12/30 08:47:05;;;;;;;4.07;0.93;;;;;;;;;;5041215;28;20056;-88
2023/12/30 08:49:33;;;;;;;4.72;0.65;;;;;;;;;;5059325;28;20042;-88
2023/12/30 08:52:00;;;;;;;1.95;0.63;;;;;;;;;;5044261;28;20136;-89
2023/12/30 08:54:28;;;;;;;3.25;0.80;;;;;;;;;;5042499;28;20102;-89
2023/12/30 08:56:55;;;;;;;5.50;1.20;;;;;;;;;;5057280;28;20053;-89
2023/12/30 08:59:24;;;;;;;2.17;0.63;;;;;;;;;;5057954;28;20111;-89
2023/12/30 09:01:51;;;;;;;4.47;0.75;;;;;;;;;;5044258;28;20060;-88
2023/12/30 09:04:19;;;;;;;4.60;0.95;;;;;;;;;;5027404;28;20137;-89
2023/12/30 09:06:47;;;;;;;12.15;6.05;;;;;;;;;;5035805;28;20491;-89
2023/12/30 09:09:14;;;;;;;6.05;2.60;;;;;;;;;;5036764;28;20049;-85
2023/12/30 09:11:42;;;;;;;6.85;4.95;;;;;;;;;;5032482;28;20115;-88
2023/12/30 09:14:10;;;;;;;5.03;3.03;;;;;;;;;;5056837;28;20064;-89
2023/12/30 09:16:37;;;;;;;14.73;7.40;;;;;;;;;;5060308;28;20049;-89
2023/12/30 09:19:05;;;;;;;5.38;3.80;;;;;;;;;;5036679;28;20464;-89
2023/12/30 09:21:33;;;;;;;6.25;2.20;;;;;;;;;;5043331;28;20085;-90
2023/12/30 09:24:00;;;;;;;6.05;1.80;;;;;;;;;;5043615;28;20048;-90
2023/12/30 09:26:27;;;;;;;2.35;1.20;;;;;;;;;;5041977;28;20080;-90
2023/12/30 09:28:55;;;;;;;4.40;0.70;;;;;;;;;;5049395;28;20053;-89
2023/12/30 09:31:24;;;;;;;0.70;0.60;;;;;;;;;;5043200;28;20067;-89
2023/12/30 09:33:52;;;;;;;2.38;0.68;;;;;;;;;;5056944;28;20053;-89
2023/12/30 09:36:20;;;;;;;5.05;1.13;;;;;;;;;;5040312;28;20053;-90
2023/12/30 09:38:47;;;;;;;4.53;1.00;;;;;;;;;;5056773;28;20063;-88
2023/12/30 09:41:14;;;;;;;3.95;0.90;;;;;;;;;;5057180;28;20046;-89
2023/12/30 09:43:42;;;;;;;4.57;0.77;;;;;;;;;;5040292;28;20053;-89
2023/12/30 09:46:10;;;;;;;2.20;0.98;;;;;;;;;;5056846;28;20115;-91
2023/12/30 09:48:37;;;;;;;7.15;1.38;;;;;;;;;;5059844;28;20569;-88
2023/12/30 09:51:05;;;;;;;1.73;1.00;;;;;;;;;;5036828;28;20073;-88
2023/12/30 09:53:32;;;;;;;3.20;0.57;;;;;;;;;;5038776;28;20061;-89
2023/12/30 09:55:59;;;;;;;4.97;1.05;;;;;;;;;;5032487;28;20064;-89
2023/12/30 09:58:26;;;;;;;2.25;0.65;;;;;;;;;;5042220;28;20069;-88
2023/12/30 10:00:54;;;;;;;2.70;1.10;;;;;;;;;;5059481;28;20136;-89
2023/12/30 10:03:23;;;;;;;4.30;0.80;;;;;;;;;;5061101;28;20548;-88
2023/12/30 10:05:52;;;;;;;4.28;0.90;;;;;;;;;;5047066;28;20443;-88
2023/12/30 10:08:19;;;;;;;2.70;0.75;;;;;;;;;;5046841;28;20044;-89
2023/12/30 10:10:49;;;;;;;1.58;0.50;;;;;;;;;;5060366;28;20095;-89
2023/12/30 10:13:21;;;;;;;3.88;0.80;;;;;;;;;;5068466;28;20132;-88
2023/12/30 10:15:49;;;;;;;2.95;0.88;;;;;;;;;;5060615;28;20663;-88
2023/12/30 10:18:17;;;;;;;3.58;0.65;;;;;;;;;;5059940;28;20053;-89
2023/12/30 10:20:45;;;;;;;3.38;0.70;;;;;;;;;;5047205;28;20110;-89
2023/12/30 10:23:13;;;;;;;3.20;0.75;;;;;;;;;;5047091;28;20441;-88
2023/12/30 10:25:41;;;;;;;3.13;0.90;;;;;;;;;;5035654;28;20057;-89
2023/12/30 10:28:09;;;;;;;2.78;0.80;;;;;;;;;;5059248;28;20049;-87
2023/12/30 10:30:36;;;;;;;3.97;0.77;;;;;;;;;;5043825;28;20050;-87
2023/12/30 10:33:11;;;;;;;5.28;0.90;;;;;;;;;;5059816;28;20060;-86
2023/12/30 10:35:39;;;;;;;2.05;0.80;;;;;;;;;;5063313;28;20048;-87
2023/12/30 10:38:09;;;;;;;2.58;0.90;;;;;;;;;;5047110;28;20450;-88
2023/12/30 10:40:40;;;;;;;2.03;0.57;;;;;;;;;;5044184;28;20051;-88
2023/12/30 10:43:08;;;;;;;2.22;0.80;;;;;;;;;;5065674;28;20136;-89
2023/12/30 10:45:37;;;;;;;4.85;1.27;;;;;;;;;;5053525;28;20057;-88
2023/12/30 10:48:06;;;;;;;2.50;0.63;;;;;;;;;;5059764;28;20437;-88
2023/12/30 10:50:37;;;;;;;4.93;0.80;;;;;;;;;;5062545;28;20204;-88
2023/12/30 10:53:11;;;;;;;5.03;1.05;;;;;;;;;;5046360;28;20049;-88
2023/12/30 10:55:41;;;;;;;3.78;0.80;;;;;;;;;;5043599;28;20103;-88
2023/12/30 10:58:17;;;;;;;1.65;0.60;;;;;;;;;;5059777;28;20562;-89
2023/12/30 11:00:46;;;;;;;2.05;0.60;;;;;;;;;;5035563;28;20466;-88
2023/12/30 11:03:14;;;;;;;2.08;0.60;;;;;;;;;;5059411;28;20577;-88
2023/12/30 11:05:48;;;;;;;4.25;1.00;;;;;;;;;;5051848;28;20045;-88
2023/12/30 11:08:17;;;;;;;4.88;1.02;;;;;;;;;;5042571;28;20046;-86
2023/12/30 11:10:45;;;;;;;1.83;0.70;;;;;;;;;;5045811;28;20407;-89
2023/12/30 11:13:12;;;;;;;7.72;1.00;;;;;;;;;;5029473;28;20045;-88
2023/12/30 11:15:41;;;;;;;5.20;1.00;;;;;;;;;;5047185;28;20095;-89
2023/12/30 11:18:12;;;;;;;3.53;0.57;;;;;;;;;;5045597;28;20053;-88
2023/12/30 11:20:47;;;;;;;1.63;0.60;;;;;;;;;;5034456;28;20084;-88
2023/12/30 11:23:18;;;;;;;4.88;0.70;;;;;;;;;;5059039;28;20049;-88
2023/12/30 11:25:48;;;;;;;3.95;0.52;;;;;;;;;;5062509;28;20052;-88
2023/12/30 11:28:22;;;;;;;3.63;0.82;;;;;;;;;;5045890;28;20051;-88
2023/12/30 11:31:00;;;;;;;1.58;0.60;;;;;;;;;;5042364;28;20157;-89
2023/12/30 11:33:27;;;;;;;1.10;0.50;;;;;;;;;;5060109;28;20057;-89
2023/12/30 11:35:55;;;;;;;4.78;0.80;;;;;;;;;;5032340;28;20053;-87
2023/12/30 11:38:30;;;;;;;2.60;0.43;;;;;;;;;;5059934;28;20103;-88
2023/12/30 11:40:59;;;;;;;3.60;1.00;;;;;;;;;;5034163;28;20049;-90
2023/12/30 11:43:26;;;;;;;2.13;0.73;;;;;;;;;;5040128;28;20048;-88
2023/12/30 11:45:54;;;;;;;1.17;0.50;;;;;;;;;;5058430;28;20478;-88
2023/12/30 11:48:22;;;;;;;2.28;0.70;;;;;;;;;;5059602;28;20057;-88
2023/12/30 11:50:53;;;;;;;1.13;0.80;;;;;;;;;;5045514;28;20136;-87
2023/12/30 11:53:21;;;;;;;2.83;0.82;;;;;;;;;;5027566;28;20069;-88
2023/12/30 11:55:49;;;;;;;2.85;0.90;;;;;;;;;;5023144;28;20049;-88
2023/12/30 11:58:16;;;;;;;2.15;0.77;;;;;;;;;;5047787;28;20046;-90
2023/12/30 12:00:43;;;;;;;2.72;0.88;;;;;;;;;;5046898;28;20053;-89
2023/12/30 12:03:11;;;;;;;3.35;0.95;;;;;;;;;;5045218;28;20061;-89
2023/12/30 12:05:38;;;;;;;2.97;0.68;;;;;;;;;;5042066;28;20049;-86
2023/12/30 12:08:10;;;;;;;2.78;0.73;;;;;;;;;;5058047;28;20051;-89
2023/12/30 12:10:37;;;;;;;7.13;1.00;;;;;;;;;;5061149;28;20049;-88
2023/12/30 12:13:09;;;;;;;1.83;0.70;;;;;;;;;;5044650;28;20104;-88
2023/12/30 12:15:36;;;;;;;3.13;0.85;;;;;;;;;;5025923;28;20485;-89
2023/12/30 12:18:04;;;;;;;3.67;0.88;;;;;;;;;;5058042;28;20115;-89
2023/12/30 12:20:37;;;;;;;3.00;1.00;;;;;;;;;;5064181;28;20151;-88
2023/12/30 12:23:04;;;;;;;6.45;0.75;;;;;;;;;;5035430;28;20049;-88
2023/12/30 12:25:33;;;;;;;5.65;1.05;;;;;;;;;;5043244;28;20077;-89
2023/12/30 12:28:00;;;;;;;2.70;1.00;;;;;;;;;;5044711;28;20045;-87
2023/12/30 12:30:27;;;;;;;4.18;0.90;;;;;;;;;;5042854;28;20402;-88
2023/12/30 12:32:58;;;;;;;3.70;1.05;;;;;;;;;;5057738;28;20406;-88
2023/12/30 12:35:25;;;;;;;3.72;1.25;;;;;;;;;;5058965;28;20061;-90
2023/12/30 12:37:53;;;;;;;3.05;0.90;;;;;;;;;;5044301;28;20481;-88
2023/12/30 12:40:20;;;;;;;4.38;1.02;;;;;;;;;;5043422;28;20413;-88
2023/12/30 12:42:47;;;;;;;4.03;0.90;;;;;;;;;;5042234;28;20045;-88
2023/12/30 12:45:15;;;;;;;3.45;0.80;;;;;;;;;;5057386;28;20053;-87
2023/12/30 12:47:42;;;;;;;3.75;0.90;;;;;;;;;;5041060;28;20099;-88
2023/12/30 12:50:09;;;;;;;2.45;1.13;;;;;;;;;;5056964;28;20068;-88
2023/12/30 12:52:37;;;;;;;4.22;0.90;;;;;;;;;;5059798;28;20045;-88
2023/12/30 12:55:04;;;;;;;5.03;1.10;;;;;;;;;;5044123;28;20102;-89
2023/12/30 12:57:32;;;;;;;3.30;0.70;;;;;;;;;;5042080;28;20079;-88
2023/12/30 12:59:59;;;;;;;2.90;0.88;;;;;;;;;;5057361;28;20049;-89
2023/12/30 13:02:27;;;;;;;2.58;0.80;;;;;;;;;;5057570;28;20053;-88
2023/12/30 13:04:55;;;;;;;3.17;1.20;;;;;;;;;;5040506;28;20449;-88
2023/12/30 13:07:22;;;;;;;1.67;0.63;;;;;;;;;;5041676;28;20053;-87
2023/12/30 13:09:53;;;;;;;3.67;0.90;;;;;;;;;;5039341;28;20148;-88
2023/12/30 13:12:21;;;;;;;1.30;0.80;;;;;;;;;;5047263;28;20136;-88
2023/12/30 13:14:50;;;;;;;2.42;0.73;;;;;;;;;;5051174;28;20166;-88
2023/12/30 13:17:18;;;;;;;2.33;0.73;;;;;;;;;;5043654;28;20057;-88
2023/12/30 13:19:46;;;;;;;4.45;1.00;;;;;;;;;;5040551;28;20476;-88
2023/12/30 13:22:14;;;;;;;1.10;0.88;;;;;;;;;;5040750;28;20050;-88
2023/12/30 13:24:41;;;;;;;3.20;0.75;;;;;;;;;;5048974;28;20136;-88
2023/12/30 13:27:11;;;;;;;3.08;0.93;;;;;;;;;;5056987;28;20095;-88
2023/12/30 13:29:38;;;;;;;3.85;0.82;;;;;;;;;;5053811;28;20050;-89
2023/12/30 13:32:05;;;;;;;2.92;0.73;;;;;;;;;;5033696;28;20072;-89
2023/12/30 13:34:34;;;;;;;6.40;0.90;;;;;;;;;;5042238;28;20059;-88
2023/12/30 13:37:05;;;;;;;4.50;0.95;;;;;;;;;;5044972;28;20049;-88
2023/12/30 13:39:34;;;;;;;4.03;1.05;;;;;;;;;;5047922;28;20053;-88
2023/12/30 13:42:07;;;;;;;2.08;0.75;;;;;;;;;;5047844;28;20051;-88
2023/12/30 13:44:42;;;;;;;4.45;1.48;;;;;;;;;;5045045;28;20056;-90
2023/12/30 13:47:37;;;;;;;3.47;1.67;;;;;;;;;;5060810;28;20056;-88
2023/12/30 13:50:19;;;;;;;4.47;2.40;;;;;;;;;;5029320;28;20049;-87
2023/12/30 13:52:50;;;;;;;4.80;1.73;;;;;;;;;;5036915;28;20052;-87
2023/12/30 13:55:18;;;;;;;7.80;1.35;;;;;;;;;;5060855;28;20053;-87
2023/12/30 13:57:52;;;;;;;4.07;1.05;;;;;;;;;;5048903;28;20378;-87
2023/12/30 14:00:19;;;;;;;4.55;1.67;;;;;;;;;;5047271;28;20440;-87
2023/12/30 14:02:48;;;;;;;3.63;1.20;;;;;;;;;;5045007;28;20045;-86
2023/12/30 14:05:33;;;;;;;5.65;1.30;;;;;;;;;;5045690;28;20141;-86
2023/12/30 14:08:13;;;;;;;4.18;1.70;;;;;;;;;;5041327;28;20049;-87
2023/12/30 14:10:46;;;;;;;3.78;0.80;;;;;;;;;;5064095;28;20049;-87
2023/12/30 14:13:19;;;;;;;4.35;0.90;;;;;;;;;;5047139;28;20055;-86
2023/12/30 14:15:47;;;;;;;7.10;1.20;;;;;;;;;;5036352;28;20057;-86
2023/12/30 14:18:18;;;;;;;3.05;0.90;;;;;;;;;;5059611;28;20332;-87
2023/12/30 14:20:46;;;;;;;4.40;1.23;;;;;;;;;;5036284;28;20490;-87
2023/12/30 14:23:14;;;;;;;3.50;0.90;;;;;;;;;;5060244;28;20480;-87
2023/12/30 14:25:43;;;;;;;2.88;1.00;;;;;;;;;;5048268;28;20477;-87
2023/12/30 14:28:11;;;;;;;4.55;1.30;;;;;;;;;;5058720;28;20116;-86
2023/12/30 14:30:38;;;;;;;3.05;1.20;;;;;;;;;;5044199;28;20062;-87
2023/12/30 14:33:06;;;;;;;5.35;1.20;;;;;;;;;;5044248;28;20072;-87
2023/12/30 14:35:34;;;;;;;6.90;1.45;;;;;;;;;;5062608;28;20099;-87
2023/12/30 14:38:04;;;;;;;2.40;1.38;;;;;;;;;;5047824;28;20045;-88
2023/12/30 14:40:31;;;;;;;6.78;2.95;;;;;;;;;;5044872;28;20064;-87
2023/12/30 14:42:58;;;;;;;9.02;3.67;;;;;;;;;;5059392;28;20052;-88
2023/12/30 14:45:26;;;;;;;5.43;3.03;;;;;;;;;;5061336;28;20387;-88
2023/12/30 14:47:53;;;;;;;8.70;2.65;;;;;;;;;;5045882;28;20044;-87